Time;durP1;ratioP1;P1;durP2;ratioP2;P2;SDS_P1;SDS_P2;PMS_P1;PMS_P2;Temp;Humidity;BMP_temperature;BMP_pressure;BME280_temperature;BME280_humidity;BME280_pressure;Samples;Min_cycle;Max_cycle;Signal;HPM_P1;HPM_P2
2021/10/31 00:00:21;;;;;;;19.55;14.35;;;;;;;;;;5050240;28;20032;-68
2021/10/31 00:02:47;;;;;;;23.52;16.65;;;;;;;;;;5047674;28;20056;-67
2021/10/31 00:05:13;;;;;;;24.40;17.38;;;;;;;;;;5047900;28;20122;-67
2021/10/31 00:07:39;;;;;;;25.38;16.63;;;;;;;;;;5047980;28;20185;-67
2021/10/31 00:10:06;;;;;;;24.08;16.67;;;;;;;;;;5047693;28;20025;-67
2021/10/31 00:12:32;;;;;;;27.85;17.83;;;;;;;;;;5047805;28;20052;-68
2021/10/31 00:14:58;;;;;;;22.88;16.38;;;;;;;;;;5050693;28;20021;-67
2021/10/31 00:17:24;;;;;;;28.27;17.55;;;;;;;;;;5047929;28;20037;-67
2021/10/31 00:19:50;;;;;;;23.60;16.63;;;;;;;;;;5047426;28;20061;-68
2021/10/31 00:22:16;;;;;;;21.58;15.77;;;;;;;;;;5047812;28;20488;-67
2021/10/31 00:24:42;;;;;;;23.08;15.65;;;;;;;;;;5046906;28;20026;-68
2021/10/31 00:27:08;;;;;;;21.02;14.43;;;;;;;;;;5050322;28;20552;-68
2021/10/31 00:29:34;;;;;;;18.27;13.68;;;;;;;;;;5048620;28;20092;-67
2021/10/31 00:32:00;;;;;;;21.05;14.55;;;;;;;;;;5046986;28;20064;-67
2021/10/31 00:34:26;;;;;;;25.75;16.42;;;;;;;;;;5047472;28;20118;-68
2021/10/31 00:36:52;;;;;;;29.23;18.55;;;;;;;;;;5047471;28;20057;-68
2021/10/31 00:39:18;;;;;;;29.73;17.50;;;;;;;;;;5050697;28;20017;-68
2021/10/31 00:41:44;;;;;;;25.83;17.85;;;;;;;;;;5052733;28;20435;-68
2021/10/31 00:44:10;;;;;;;32.30;19.55;;;;;;;;;;5051183;28;20029;-67
2021/10/31 00:46:36;;;;;;;31.02;19.40;;;;;;;;;;5051206;28;20040;-67
2021/10/31 00:49:03;;;;;;;33.33;19.08;;;;;;;;;;5051806;28;20103;-68
2021/10/31 00:51:29;;;;;;;31.33;21.40;;;;;;;;;;5052126;28;20052;-68
2021/10/31 00:53:57;;;;;;;36.42;20.38;;;;;;;;;;5054263;28;20021;-68
2021/10/31 00:56:23;;;;;;;30.35;19.52;;;;;;;;;;5050579;28;20035;-68
2021/10/31 00:58:49;;;;;;;35.25;21.02;;;;;;;;;;5051517;28;20021;-68
2021/10/31 01:01:15;;;;;;;31.70;20.35;;;;;;;;;;5051486;28;20032;-68
2021/10/31 01:03:41;;;;;;;40.95;22.25;;;;;;;;;;5051334;28;20079;-68
2021/10/31 01:06:18;;;;;;;44.67;23.67;;;;;;;;;;5053803;28;20116;-68
2021/10/31 01:08:51;;;;;;;35.20;21.80;;;;;;;;;;5052438;28;20036;-68
2021/10/31 01:11:36;;;;;;;35.03;21.95;;;;;;;;;;5050649;28;20495;-67
2021/10/31 01:14:14;;;;;;;35.83;20.58;;;;;;;;;;5050910;28;20108;-68
2021/10/31 01:16:52;;;;;;;34.28;18.70;;;;;;;;;;5051136;28;20103;-68
2021/10/31 01:19:27;;;;;;;29.45;17.65;;;;;;;;;;5051225;28;20064;-68
2021/10/31 01:21:54;;;;;;;26.27;18.00;;;;;;;;;;5050677;28;20033;-68
2021/10/31 01:24:26;;;;;;;26.80;18.38;;;;;;;;;;5052483;28;20048;-67
2021/10/31 01:26:52;;;;;;;26.20;16.60;;;;;;;;;;5053477;28;20150;-67
2021/10/31 01:29:44;;;;;;;26.27;16.75;;;;;;;;;;5050645;28;20104;-67
2021/10/31 01:32:23;;;;;;;20.73;14.77;;;;;;;;;;5033180;28;20107;-67
2021/10/31 01:34:49;;;;;;;21.52;15.07;;;;;;;;;;5050759;28;20029;-67
2021/10/31 01:37:25;;;;;;;25.40;15.95;;;;;;;;;;5049836;28;20044;-69
2021/10/31 01:39:59;;;;;;;21.90;14.98;;;;;;;;;;5050960;28;20040;-68
2021/10/31 01:42:27;;;;;;;21.00;14.50;;;;;;;;;;5052125;28;20041;-68
2021/10/31 01:45:16;;;;;;;23.20;14.88;;;;;;;;;;5052989;28;20496;-68
2021/10/31 01:47:44;;;;;;;19.00;14.02;;;;;;;;;;5053344;28;20186;-68
2021/10/31 01:50:33;;;;;;;21.65;14.45;;;;;;;;;;5050160;28;20028;-68
2021/10/31 01:53:04;;;;;;;23.75;15.98;;;;;;;;;;5050269;28;20040;-68
2021/10/31 01:55:32;;;;;;;22.55;15.13;;;;;;;;;;5050173;28;20111;-68
2021/10/31 01:58:00;;;;;;;23.98;15.65;;;;;;;;;;5050105;28;20036;-67
2021/10/31 02:00:28;;;;;;;26.00;16.48;;;;;;;;;;5051345;28;20026;-68
2021/10/31 02:02:55;;;;;;;25.02;15.98;;;;;;;;;;5053224;28;20036;-67
2021/10/31 02:05:24;;;;;;;19.73;13.75;;;;;;;;;;5049894;28;20044;-67
2021/10/31 02:07:50;;;;;;;;;;;;;;;;;;5049096;28;20025;-63
2021/10/31 02:10:17;;;;;;;25.00;14.65;;;;;;;;;;5049703;28;19913;-63
2021/10/31 02:12:45;;;;;;;20.63;14.70;;;;;;;;;;5050195;28;20037;-64
2021/10/31 02:15:15;;;;;;;24.08;15.95;;;;;;;;;;5052078;28;20043;-63
2021/10/31 02:17:42;;;;;;;25.27;16.20;;;;;;;;;;5051323;28;20025;-64
2021/10/31 02:20:08;;;;;;;22.88;16.35;;;;;;;;;;5049590;28;20090;-63
2021/10/31 02:22:34;;;;;;;21.02;15.18;;;;;;;;;;5049754;28;20104;-63
2021/10/31 02:25:01;;;;;;;20.58;15.45;;;;;;;;;;5049618;28;20057;-63
2021/10/31 02:27:31;;;;;;;21.08;13.95;;;;;;;;;;5050439;28;20036;-63
2021/10/31 02:29:57;;;;;;;25.90;14.45;;;;;;;;;;5052613;28;20362;-63
2021/10/31 02:32:29;;;;;;;22.95;15.60;;;;;;;;;;5049560;28;20480;-63
2021/10/31 02:34:55;;;;;;;20.50;15.32;;;;;;;;;;5049626;28;20064;-63
2021/10/31 02:37:22;;;;;;;24.08;15.43;;;;;;;;;;5048779;28;20107;-63
2021/10/31 02:39:48;;;;;;;24.75;15.50;;;;;;;;;;5048424;28;20048;-65
2021/10/31 02:42:15;;;;;;;22.65;16.05;;;;;;;;;;5051662;28;20021;-63
2021/10/31 02:44:42;;;;;;;21.70;15.20;;;;;;;;;;5050686;28;20029;-64
2021/10/31 02:47:09;;;;;;;24.30;15.65;;;;;;;;;;5049056;28;20654;-63
2021/10/31 02:49:35;;;;;;;23.70;15.43;;;;;;;;;;5049125;28;20032;-63
2021/10/31 02:52:05;;;;;;;21.90;14.52;;;;;;;;;;5049481;28;20025;-64
2021/10/31 02:54:51;;;;;;;20.80;15.30;;;;;;;;;;5049821;28;20116;-63
2021/10/31 02:57:26;;;;;;;20.98;14.38;;;;;;;;;;5048779;28;20036;-63
2021/10/31 02:59:57;;;;;;;18.45;13.82;;;;;;;;;;5063874;28;20044;-63
2021/10/31 03:02:25;;;;;;;23.48;14.63;;;;;;;;;;5048105;28;20032;-63
2021/10/31 03:04:51;;;;;;;24.42;14.80;;;;;;;;;;5047937;28;20118;-64
2021/10/31 03:07:17;;;;;;;19.33;14.30;;;;;;;;;;5048649;28;20039;-63
2021/10/31 03:09:47;;;;;;;20.42;14.10;;;;;;;;;;5048861;28;20025;-64
2021/10/31 03:12:13;;;;;;;17.55;12.80;;;;;;;;;;5049507;28;20480;-64
2021/10/31 03:14:39;;;;;;;17.92;13.30;;;;;;;;;;5050683;28;20036;-62
2021/10/31 03:17:06;;;;;;;19.02;13.23;;;;;;;;;;5049865;28;20087;-64
2021/10/31 03:19:32;;;;;;;16.88;12.55;;;;;;;;;;5048556;28;20029;-64
2021/10/31 03:21:58;;;;;;;20.90;13.30;;;;;;;;;;5048575;28;20040;-64
2021/10/31 03:24:24;;;;;;;19.17;12.90;;;;;;;;;;5050389;28;20046;-64
2021/10/31 03:26:50;;;;;;;17.55;12.63;;;;;;;;;;5050766;28;20475;-64
2021/10/31 03:29:18;;;;;;;19.67;14.27;;;;;;;;;;5048761;28;20420;-64
2021/10/31 03:31:44;;;;;;;21.17;15.60;;;;;;;;;;5046886;28;20029;-64
2021/10/31 03:34:10;;;;;;;21.08;14.32;;;;;;;;;;5048040;28;20059;-64
2021/10/31 03:36:36;;;;;;;21.10;15.02;;;;;;;;;;5048147;28;20105;-64
2021/10/31 03:39:02;;;;;;;23.10;13.95;;;;;;;;;;5052291;28;20513;-64
2021/10/31 03:41:28;;;;;;;20.17;13.82;;;;;;;;;;5048167;28;20063;-64
2021/10/31 03:43:54;;;;;;;18.30;12.70;;;;;;;;;;5047962;28;20047;-64
2021/10/31 03:46:20;;;;;;;17.20;12.70;;;;;;;;;;5047811;28;20048;-63
2021/10/31 03:48:46;;;;;;;22.75;13.93;;;;;;;;;;5048551;28;20083;-63
2021/10/31 03:51:12;;;;;;;18.85;13.93;;;;;;;;;;5050002;28;20107;-64
2021/10/31 03:53:38;;;;;;;22.83;14.38;;;;;;;;;;5049690;28;20021;-63
2021/10/31 03:56:04;;;;;;;17.92;13.85;;;;;;;;;;5047611;28;20116;-64
2021/10/31 03:58:30;;;;;;;17.42;12.80;;;;;;;;;;5047907;28;20047;-64
2021/10/31 04:00:56;;;;;;;15.40;11.52;;;;;;;;;;5047910;28;20103;-64
2021/10/31 04:03:22;;;;;;;20.35;12.95;;;;;;;;;;5050012;28;20491;-63
2021/10/31 04:05:48;;;;;;;17.77;12.90;;;;;;;;;;5049303;28;20036;-64
2021/10/31 04:08:14;;;;;;;17.63;12.77;;;;;;;;;;5047315;28;20033;-64
2021/10/31 04:10:40;;;;;;;18.65;13.23;;;;;;;;;;5048083;28;20163;-64
2021/10/31 04:13:06;;;;;;;19.25;13.07;;;;;;;;;;5048063;28;20056;-64
2021/10/31 04:15:32;;;;;;;18.58;12.55;;;;;;;;;;5031812;28;20488;-64
2021/10/31 04:17:58;;;;;;;18.00;12.35;;;;;;;;;;5050555;28;20033;-65
2021/10/31 04:20:24;;;;;;;17.17;12.45;;;;;;;;;;5047528;28;20029;-65
2021/10/31 04:22:51;;;;;;;19.55;12.93;;;;;;;;;;5047770;28;20059;-64
2021/10/31 04:25:17;;;;;;;18.75;13.05;;;;;;;;;;5047470;28;20124;-63
2021/10/31 04:27:44;;;;;;;18.23;12.45;;;;;;;;;;5047265;28;20065;-63
2021/10/31 04:30:10;;;;;;;21.55;13.75;;;;;;;;;;5049756;28;20374;-63
2021/10/31 04:32:37;;;;;;;20.58;13.07;;;;;;;;;;5048540;28;20401;-64
2021/10/31 04:35:03;;;;;;;17.40;13.13;;;;;;;;;;5047727;28;20056;-64
2021/10/31 04:37:29;;;;;;;17.38;13.13;;;;;;;;;;5047177;28;20029;-64
2021/10/31 04:39:58;;;;;;;19.05;13.38;;;;;;;;;;5047211;28;20030;-64
2021/10/31 04:42:29;;;;;;;17.00;12.48;;;;;;;;;;5049161;28;20028;-64
2021/10/31 04:44:55;;;;;;;15.38;12.07;;;;;;;;;;5050189;28;20024;-64
2021/10/31 04:47:21;;;;;;;16.80;12.32;;;;;;;;;;5046133;28;20473;-64
2021/10/31 04:49:47;;;;;;;19.48;12.68;;;;;;;;;;5046851;28;20338;-65
2021/10/31 04:52:14;;;;;;;15.75;12.07;;;;;;;;;;5047874;28;20085;-65
2021/10/31 04:54:40;;;;;;;41.58;12.18;;;;;;;;;;5048955;28;20024;-64
2021/10/31 04:57:07;;;;;;;291.08;16.85;;;;;;;;;;5050035;28;20033;-65
2021/10/31 04:59:33;;;;;;;16.63;12.10;;;;;;;;;;5047235;28;20021;-64
2021/10/31 05:01:59;;;;;;;19.10;13.57;;;;;;;;;;5047410;28;20547;-65
2021/10/31 05:04:25;;;;;;;19.23;13.40;;;;;;;;;;5046063;28;20029;-65
2021/10/31 05:06:51;;;;;;;17.35;12.90;;;;;;;;;;5047220;28;20038;-65
2021/10/31 05:09:17;;;;;;;20.85;13.15;;;;;;;;;;5048772;28;20503;-67
2021/10/31 05:11:43;;;;;;;16.85;12.70;;;;;;;;;;5050118;28;20096;-66
2021/10/31 05:14:09;;;;;;;19.15;12.75;;;;;;;;;;5047561;28;20024;-67
2021/10/31 05:16:37;;;;;;;20.08;13.55;;;;;;;;;;5048626;28;20579;-66
2021/10/31 05:19:03;;;;;;;16.55;12.15;;;;;;;;;;5046852;28;20013;-66
2021/10/31 05:21:29;;;;;;;18.05;13.40;;;;;;;;;;5047717;28;20048;-66
2021/10/31 05:23:55;;;;;;;14.57;11.55;;;;;;;;;;5049006;28;20514;-66
2021/10/31 05:26:21;;;;;;;15.30;10.75;;;;;;;;;;5048428;28;20033;-65
2021/10/31 05:28:48;;;;;;;15.35;10.63;;;;;;;;;;5051461;28;20366;-65
2021/10/31 05:31:14;;;;;;;12.65;9.77;;;;;;;;;;5051422;28;20021;-65
2021/10/31 05:33:40;;;;;;;13.15;10.27;;;;;;;;;;5051342;28;20056;-66
2021/10/31 05:36:06;;;;;;;14.80;10.52;;;;;;;;;;5051201;28;20041;-63
2021/10/31 05:38:32;;;;;;;14.50;10.38;;;;;;;;;;5051423;28;20044;-64
2021/10/31 05:40:58;;;;;;;13.75;10.80;;;;;;;;;;5051044;28;20064;-65
2021/10/31 05:43:24;;;;;;;13.95;10.10;;;;;;;;;;5050326;28;20053;-65
2021/10/31 05:45:51;;;;;;;13.60;10.35;;;;;;;;;;5050744;28;20044;-64
2021/10/31 05:48:17;;;;;;;14.02;10.57;;;;;;;;;;5051360;28;20473;-65
2021/10/31 05:50:43;;;;;;;15.32;11.13;;;;;;;;;;5052113;28;20079;-64
2021/10/31 05:53:09;;;;;;;17.75;11.95;;;;;;;;;;5050401;28;20087;-61
2021/10/31 05:55:35;;;;;;;15.85;12.63;;;;;;;;;;5049412;28;20025;-64
2021/10/31 05:58:01;;;;;;;16.08;12.00;;;;;;;;;;5050573;28;20025;-62
2021/10/31 06:00:27;;;;;;;17.55;12.07;;;;;;;;;;5050393;28;20044;-66
2021/10/31 06:02:53;;;;;;;14.90;11.30;;;;;;;;;;5052971;28;20025;-62
2021/10/31 06:05:20;;;;;;;16.17;12.23;;;;;;;;;;5049086;28;20098;-65
2021/10/31 06:07:46;;;;;;;17.10;12.48;;;;;;;;;;5049265;28;20021;-66
2021/10/31 06:10:12;;;;;;;17.92;11.75;;;;;;;;;;5049691;28;20029;-64
2021/10/31 06:12:42;;;;;;;16.75;12.27;;;;;;;;;;5048306;28;20021;-64
2021/10/31 06:15:08;;;;;;;16.05;11.98;;;;;;;;;;5051071;28;20037;-65
2021/10/31 06:17:34;;;;;;;16.80;11.80;;;;;;;;;;5049692;28;20036;-64
2021/10/31 06:20:01;;;;;;;19.23;12.63;;;;;;;;;;5049495;28;20036;-64
2021/10/31 06:22:27;;;;;;;18.55;12.23;;;;;;;;;;5049970;28;20025;-68
2021/10/31 06:24:53;;;;;;;16.95;12.65;;;;;;;;;;5050152;28;20506;-65
2021/10/31 06:27:19;;;;;;;18.60;12.80;;;;;;;;;;5049056;28;20053;-68
2021/10/31 06:29:45;;;;;;;18.08;13.02;;;;;;;;;;5050908;28;20108;-68
2021/10/31 06:32:11;;;;;;;17.25;12.93;;;;;;;;;;5049928;28;20160;-66
2021/10/31 06:34:37;;;;;;;18.55;13.57;;;;;;;;;;5049969;28;20036;-67
2021/10/31 06:37:03;;;;;;;22.45;14.68;;;;;;;;;;5049549;28;20035;-62
2021/10/31 06:39:29;;;;;;;17.67;13.32;;;;;;;;;;5049088;28;20061;-61
2021/10/31 06:41:55;;;;;;;18.13;13.43;;;;;;;;;;5050346;28;20060;-64
2021/10/31 06:44:21;;;;;;;16.45;12.07;;;;;;;;;;5050118;28;20668;-63
2021/10/31 06:46:47;;;;;;;16.10;12.32;;;;;;;;;;5049596;28;20040;-64
2021/10/31 06:49:13;;;;;;;15.93;12.15;;;;;;;;;;5047437;28;20036;-64
2021/10/31 06:51:39;;;;;;;16.88;12.73;;;;;;;;;;5050255;28;20504;-64
2021/10/31 06:54:06;;;;;;;16.48;12.30;;;;;;;;;;5052241;28;20025;-64
2021/10/31 06:56:32;;;;;;;17.17;12.80;;;;;;;;;;5050922;28;20032;-64
2021/10/31 06:58:58;;;;;;;16.85;12.38;;;;;;;;;;5048903;28;20025;-64
2021/10/31 07:01:24;;;;;;;16.92;13.10;;;;;;;;;;5048425;28;20032;-64
2021/10/31 07:03:50;;;;;;;18.38;12.52;;;;;;;;;;5049112;28;20489;-64
2021/10/31 07:06:17;;;;;;;15.25;11.90;;;;;;;;;;5050651;28;20075;-64
2021/10/31 07:08:43;;;;;;;16.52;12.55;;;;;;;;;;5048570;28;20025;-65
2021/10/31 07:11:09;;;;;;;17.42;12.75;;;;;;;;;;5048238;28;20429;-65
2021/10/31 07:13:35;;;;;;;16.73;12.55;;;;;;;;;;5049034;28;20096;-65
2021/10/31 07:16:01;;;;;;;14.90;11.20;;;;;;;;;;5048708;28;20128;-64
2021/10/31 07:18:27;;;;;;;14.02;11.48;;;;;;;;;;5048410;28;20027;-65
2021/10/31 07:20:53;;;;;;;14.50;11.55;;;;;;;;;;5050659;28;20025;-65
2021/10/31 07:23:19;;;;;;;15.90;11.25;;;;;;;;;;5047661;28;20389;-65
2021/10/31 07:25:45;;;;;;;19.52;13.07;;;;;;;;;;5048759;28;20029;-65
2021/10/31 07:28:11;;;;;;;17.98;12.35;;;;;;;;;;5048083;28;20025;-65
2021/10/31 07:30:38;;;;;;;15.82;12.18;;;;;;;;;;5048094;28;20020;-65
2021/10/31 07:33:05;;;;;;;16.10;12.05;;;;;;;;;;5050682;28;20408;-65
2021/10/31 07:35:31;;;;;;;17.38;12.68;;;;;;;;;;5050668;28;20032;-65
2021/10/31 07:37:58;;;;;;;20.02;13.00;;;;;;;;;;5047773;28;20083;-65
2021/10/31 07:40:24;;;;;;;16.23;12.70;;;;;;;;;;5047604;28;20075;-65
2021/10/31 07:42:50;;;;;;;15.73;11.82;;;;;;;;;;5048378;28;20029;-65
2021/10/31 07:45:17;;;;;;;14.20;11.50;;;;;;;;;;5049438;28;20033;-65
2021/10/31 07:47:43;;;;;;;16.70;12.70;;;;;;;;;;5049015;28;20479;-65
2021/10/31 07:50:10;;;;;;;16.00;12.27;;;;;;;;;;5047516;28;20074;-65
2021/10/31 07:52:42;;;;;;;15.93;12.35;;;;;;;;;;5048096;28;20025;-65
2021/10/31 07:55:09;;;;;;;15.20;11.55;;;;;;;;;;5048352;28;20029;-65
2021/10/31 07:57:35;;;;;;;17.50;12.98;;;;;;;;;;5048406;28;20484;-65
2021/10/31 08:00:01;;;;;;;18.38;14.00;;;;;;;;;;5051258;28;20035;-65
2021/10/31 08:02:27;;;;;;;17.70;13.73;;;;;;;;;;5047387;28;20035;-65
2021/10/31 08:04:53;;;;;;;18.77;13.77;;;;;;;;;;5046789;28;20043;-65
2021/10/31 08:07:26;;;;;;;15.13;11.75;;;;;;;;;;5047728;28;20024;-64
2021/10/31 08:09:52;;;;;;;13.00;10.32;;;;;;;;;;5047682;28;20076;-65
2021/10/31 08:12:18;;;;;;;12.35;9.50;;;;;;;;;;5049490;28;20029;-64
2021/10/31 08:14:44;;;;;;;14.38;11.25;;;;;;;;;;5048968;28;20028;-64
2021/10/31 08:17:10;;;;;;;13.90;10.68;;;;;;;;;;5047693;28;20439;-64
2021/10/31 08:19:36;;;;;;;14.88;11.55;;;;;;;;;;5047628;28;20020;-65
2021/10/31 08:22:02;;;;;;;15.15;11.45;;;;;;;;;;5046897;28;20492;-65
2021/10/31 08:24:28;;;;;;;15.75;12.27;;;;;;;;;;5048905;28;20040;-65
2021/10/31 08:26:54;;;;;;;14.77;11.77;;;;;;;;;;5049017;28;20037;-65
2021/10/31 08:29:23;;;;;;;14.05;11.02;;;;;;;;;;5047651;28;20036;-65
2021/10/31 08:31:52;;;;;;;14.05;10.88;;;;;;;;;;5046615;28;20025;-65
2021/10/31 08:34:18;;;;;;;13.90;10.75;;;;;;;;;;5045996;28;20037;-65
2021/10/31 08:36:44;;;;;;;14.75;11.05;;;;;;;;;;5045300;28;20022;-65
2021/10/31 08:39:10;;;;;;;14.25;10.80;;;;;;;;;;5047915;28;20028;-65
2021/10/31 08:41:37;;;;;;;16.00;13.63;;;;;;;;;;5044712;28;20013;-65
2021/10/31 08:44:03;;;;;;;15.85;12.70;;;;;;;;;;5045696;28;20472;-65
2021/10/31 08:46:31;;;;;;;14.10;11.10;;;;;;;;;;5047484;28;20122;-65
2021/10/31 08:48:57;;;;;;;12.00;8.45;;;;;;;;;;5045878;28;20170;-66
2021/10/31 08:51:25;;;;;;;12.10;8.02;;;;;;;;;;5046381;28;20036;-65
2021/10/31 08:53:52;;;;;;;8.02;6.40;;;;;;;;;;5048872;28;20013;-65
2021/10/31 08:56:18;;;;;;;7.95;6.20;;;;;;;;;;5047237;28;20036;-65
2021/10/31 08:58:44;;;;;;;7.32;5.50;;;;;;;;;;5046346;28;20017;-65
2021/10/31 09:01:11;;;;;;;8.60;6.32;;;;;;;;;;5048650;28;20033;-65
2021/10/31 09:03:37;;;;;;;8.65;6.85;;;;;;;;;;5050210;28;20022;-65
2021/10/31 09:06:04;;;;;;;8.70;7.13;;;;;;;;;;5053394;28;20037;-65
2021/10/31 09:08:30;;;;;;;10.45;6.90;;;;;;;;;;5049669;28;20111;-65
2021/10/31 09:10:56;;;;;;;9.77;7.18;;;;;;;;;;5047835;28;20120;-65
2021/10/31 09:13:22;;;;;;;11.13;7.30;;;;;;;;;;5049139;28;20466;-66
2021/10/31 09:15:52;;;;;;;10.18;7.85;;;;;;;;;;5049420;28;20477;-64
2021/10/31 09:18:19;;;;;;;9.45;7.35;;;;;;;;;;5051539;28;20036;-66
2021/10/31 09:20:45;;;;;;;10.52;8.13;;;;;;;;;;5049525;28;20033;-65
2021/10/31 09:23:11;;;;;;;9.45;7.47;;;;;;;;;;5048832;28;20127;-66
2021/10/31 09:25:38;;;;;;;11.38;8.25;;;;;;;;;;5047645;28;20492;-65
2021/10/31 09:28:05;;;;;;;12.15;8.13;;;;;;;;;;5050463;28;20017;-65
2021/10/31 09:30:33;;;;;;;12.65;8.02;;;;;;;;;;5050842;28;20552;-64
2021/10/31 09:32:59;;;;;;;13.20;8.77;;;;;;;;;;5053917;28;20493;-65
2021/10/31 09:35:26;;;;;;;12.40;10.30;;;;;;;;;;5050595;28;20033;-65
2021/10/31 09:38:04;;;;;;;10.35;7.97;;;;;;;;;;5050365;28;20037;-65
2021/10/31 09:40:31;;;;;;;11.35;8.88;;;;;;;;;;5050367;28;20032;-64
2021/10/31 09:43:01;;;;;;;11.80;9.45;;;;;;;;;;5050429;28;20072;-65
2021/10/31 09:45:27;;;;;;;14.13;9.70;;;;;;;;;;5051986;28;20048;-65
2021/10/31 09:47:57;;;;;;;13.15;10.50;;;;;;;;;;5053142;28;20025;-64
2021/10/31 09:50:24;;;;;;;12.52;10.20;;;;;;;;;;5050629;28;20032;-65
2021/10/31 09:52:50;;;;;;;13.50;10.55;;;;;;;;;;5050176;28;20048;-65
2021/10/31 09:55:16;;;;;;;11.90;8.68;;;;;;;;;;5050003;28;20487;-65
2021/10/31 09:57:42;;;;;;;13.13;10.27;;;;;;;;;;5050215;28;20091;-63
2021/10/31 10:00:09;;;;;;;14.95;10.82;;;;;;;;;;5052944;28;20100;-65
2021/10/31 10:02:47;;;;;;;12.05;8.82;;;;;;;;;;5049480;28;20025;-65
2021/10/31 10:05:18;;;;;;;12.55;9.25;;;;;;;;;;5050392;28;20036;-67
2021/10/31 10:07:44;;;;;;;12.98;9.55;;;;;;;;;;5048531;28;20083;-65
2021/10/31 10:10:14;;;;;;;15.45;11.20;;;;;;;;;;5049674;28;20033;-69
2021/10/31 10:12:41;;;;;;;12.95;9.55;;;;;;;;;;5049146;28;20038;-69
2021/10/31 10:15:08;;;;;;;13.18;8.85;;;;;;;;;;5053346;28;20033;-68
2021/10/31 10:17:53;;;;;;;12.27;8.70;;;;;;;;;;5050449;28;20017;-68
2021/10/31 10:20:20;;;;;;;10.07;8.25;;;;;;;;;;5049988;28;20071;-68
2021/10/31 10:22:46;;;;;;;11.38;8.75;;;;;;;;;;5049836;28;20032;-68
2021/10/31 10:25:13;;;;;;;10.40;8.38;;;;;;;;;;5050941;28;20036;-68
2021/10/31 10:27:53;;;;;;;13.13;8.43;;;;;;;;;;5049704;28;20108;-68
2021/10/31 10:30:20;;;;;;;9.40;7.72;;;;;;;;;;5052281;28;20017;-67
2021/10/31 10:32:49;;;;;;;12.23;9.40;;;;;;;;;;5050756;28;20505;-67
2021/10/31 10:35:24;;;;;;;31.77;19.52;;;;;;;;;;5049821;28;20389;-68
2021/10/31 10:37:50;;;;;;;16.98;11.43;;;;;;;;;;5049485;28;20025;-67
2021/10/31 10:40:19;;;;;;;13.68;9.55;;;;;;;;;;5049552;28;20130;-68
2021/10/31 10:42:48;;;;;;;12.93;10.10;;;;;;;;;;5034926;28;20018;-68
2021/10/31 10:45:16;;;;;;;14.70;9.60;;;;;;;;;;5050214;28;20369;-67
2021/10/31 10:47:43;;;;;;;13.57;10.48;;;;;;;;;;5050112;28;20108;-67
2021/10/31 10:50:16;;;;;;;12.68;9.60;;;;;;;;;;5049280;28;20108;-68
2021/10/31 10:52:43;;;;;;;10.77;8.40;;;;;;;;;;5049453;28;20028;-67
2021/10/31 10:55:12;;;;;;;11.30;9.40;;;;;;;;;;5047635;28;20055;-68
2021/10/31 10:57:40;;;;;;;12.25;9.18;;;;;;;;;;5049226;28;20025;-68
2021/10/31 11:00:06;;;;;;;13.05;9.50;;;;;;;;;;5052547;28;20108;-67
2021/10/31 11:02:32;;;;;;;12.88;10.00;;;;;;;;;;5050954;28;20579;-67
2021/10/31 11:05:02;;;;;;;16.10;11.93;;;;;;;;;;5049920;28;20045;-67
2021/10/31 11:07:38;;;;;;;15.88;11.80;;;;;;;;;;5048758;28;20098;-67
2021/10/31 11:10:09;;;;;;;14.43;11.25;;;;;;;;;;5049025;28;20440;-67
2021/10/31 11:12:36;;;;;;;15.85;11.45;;;;;;;;;;5033644;28;20067;-68
2021/10/31 11:15:05;;;;;;;14.10;10.73;;;;;;;;;;5050548;28;20029;-69
2021/10/31 11:17:31;;;;;;;11.95;9.15;;;;;;;;;;5048861;28;20017;-69
2021/10/31 11:19:57;;;;;;;13.77;11.07;;;;;;;;;;5047318;28;20024;-69
2021/10/31 11:22:25;;;;;;;18.00;13.18;;;;;;;;;;5048567;28;20064;-69
2021/10/31 11:24:52;;;;;;;12.25;9.43;;;;;;;;;;5047502;28;20018;-69
2021/10/31 11:27:20;;;;;;;11.95;9.43;;;;;;;;;;5049429;28;20506;-68
2021/10/31 11:29:47;;;;;;;12.70;7.70;;;;;;;;;;5050086;28;20037;-68
2021/10/31 11:32:13;;;;;;;10.25;7.55;;;;;;;;;;5047652;28;20393;-68
2021/10/31 11:34:44;;;;;;;9.30;7.47;;;;;;;;;;5048080;28;20473;-68
2021/10/31 11:37:12;;;;;;;10.30;7.63;;;;;;;;;;5048411;28;20052;-68
2021/10/31 11:39:39;;;;;;;11.70;8.43;;;;;;;;;;5048345;28;20059;-68
2021/10/31 11:42:05;;;;;;;11.20;8.07;;;;;;;;;;5051841;28;20506;-69
2021/10/31 11:44:31;;;;;;;8.80;6.65;;;;;;;;;;5048263;28;20039;-69
2021/10/31 11:46:57;;;;;;;8.80;6.75;;;;;;;;;;5048594;28;20441;-68
2021/10/31 11:49:24;;;;;;;8.52;6.53;;;;;;;;;;5048315;28;20055;-68
2021/10/31 11:51:52;;;;;;;11.50;8.98;;;;;;;;;;5047866;28;20021;-68
2021/10/31 11:54:19;;;;;;;9.77;7.10;;;;;;;;;;5049967;28;20017;-69
2021/10/31 11:56:55;;;;;;;9.73;6.88;;;;;;;;;;5048838;28;20033;-69
2021/10/31 11:59:22;;;;;;;10.07;6.90;;;;;;;;;;5047960;28;20013;-68
2021/10/31 12:01:50;;;;;;;10.00;7.17;;;;;;;;;;5047630;28;20021;-67
2021/10/31 12:04:36;;;;;;;11.70;8.23;;;;;;;;;;5047988;28;20013;-68
2021/10/31 12:07:10;;;;;;;10.23;8.00;;;;;;;;;;5047699;28;20416;-68
2021/10/31 12:09:36;;;;;;;9.43;6.43;;;;;;;;;;5032216;28;20017;-69
2021/10/31 12:12:04;;;;;;;9.18;6.38;;;;;;;;;;5051470;28;20029;-68
2021/10/31 12:14:51;;;;;;;8.25;5.88;;;;;;;;;;5047064;28;20028;-68
2021/10/31 12:17:17;;;;;;;8.55;5.97;;;;;;;;;;5047891;28;20090;-69
2021/10/31 12:19:44;;;;;;;9.02;6.30;;;;;;;;;;5047879;28;20052;-69
2021/10/31 12:22:16;;;;;;;10.25;7.25;;;;;;;;;;5046855;28;20025;-68
2021/10/31 12:24:43;;;;;;;8.40;6.25;;;;;;;;;;5047727;28;20018;-68
2021/10/31 12:27:25;;;;;;;10.43;7.20;;;;;;;;;;5050278;28;20029;-69
2021/10/31 12:29:56;;;;;;;9.70;7.18;;;;;;;;;;5051020;28;20433;-69
2021/10/31 12:32:23;;;;;;;9.63;7.05;;;;;;;;;;5025742;28;20076;-68
2021/10/31 12:34:53;;;;;;;9.77;7.85;;;;;;;;;;5040891;28;20029;-69
2021/10/31 12:37:20;;;;;;;9.10;6.70;;;;;;;;;;5047374;28;20060;-68
2021/10/31 12:39:47;;;;;;;12.27;6.60;;;;;;;;;;5047579;28;20358;-68
2021/10/31 12:42:13;;;;;;;9.43;7.50;;;;;;;;;;5049520;28;20495;-68
2021/10/31 12:44:42;;;;;;;10.02;7.20;;;;;;;;;;5048380;28;20033;-68
2021/10/31 12:47:12;;;;;;;9.40;6.45;;;;;;;;;;5046900;28;20041;-68
2021/10/31 12:49:38;;;;;;;10.27;7.45;;;;;;;;;;5047323;28;20033;-68
2021/10/31 12:52:18;;;;;;;9.00;7.18;;;;;;;;;;5047460;28;20067;-69
2021/10/31 12:54:44;;;;;;;10.30;6.70;;;;;;;;;;5032923;28;20036;-69
2021/10/31 12:57:11;;;;;;;9.45;6.70;;;;;;;;;;5048832;28;20433;-68
2021/10/31 12:59:47;;;;;;;7.78;5.40;;;;;;;;;;5048595;28;20374;-68
2021/10/31 13:02:14;;;;;;;7.13;5.00;;;;;;;;;;5047407;28;20033;-68
2021/10/31 13:05:07;;;;;;;7.55;4.68;;;;;;;;;;5047562;28;20119;-68
2021/10/31 13:07:38;;;;;;;8.23;5.57;;;;;;;;;;5045577;28;20045;-69
2021/10/31 13:10:05;;;;;;;9.20;6.22;;;;;;;;;;5047020;28;20021;-68
2021/10/31 13:12:31;;;;;;;8.60;5.72;;;;;;;;;;5047806;28;20032;-68
2021/10/31 13:15:11;;;;;;;8.02;5.82;;;;;;;;;;5050398;28;20025;-68
2021/10/31 13:17:39;;;;;;;11.25;8.60;;;;;;;;;;5047689;28;20056;-69
2021/10/31 13:20:17;;;;;;;6.90;5.35;;;;;;;;;;5045365;28;20021;-68
2021/10/31 13:22:44;;;;;;;8.27;5.13;;;;;;;;;;5047124;28;20037;-69
2021/10/31 13:25:12;;;;;;;7.67;5.30;;;;;;;;;;5047181;28;20043;-67
2021/10/31 13:27:43;;;;;;;6.20;4.50;;;;;;;;;;5047053;28;20104;-68
2021/10/31 13:30:10;;;;;;;7.35;4.97;;;;;;;;;;5049708;28;20021;-69
2021/10/31 13:32:37;;;;;;;9.68;7.60;;;;;;;;;;5047284;28;20124;-68
2021/10/31 13:35:03;;;;;;;6.60;4.78;;;;;;;;;;5047255;28;20029;-68
2021/10/31 13:37:29;;;;;;;7.35;4.72;;;;;;;;;;5046767;28;20029;-69
2021/10/31 13:40:00;;;;;;;6.90;4.35;;;;;;;;;;5048511;28;20091;-69
2021/10/31 13:42:35;;;;;;;5.35;3.88;;;;;;;;;;5046136;28;20044;-69
2021/10/31 13:45:04;;;;;;;7.28;4.03;;;;;;;;;;5050259;28;20032;-68
2021/10/31 13:50:02;;;;;;;6.07;4.20;;;;;;;;;;5050237;28;20033;-69
2021/10/31 13:52:28;;;;;;;7.68;5.03;;;;;;;;;;5050259;28;20033;-68
2021/10/31 13:54:55;;;;;;;5.63;3.95;;;;;;;;;;5049870;28;20053;-69
2021/10/31 13:57:23;;;;;;;5.65;4.32;;;;;;;;;;5052677;28;20028;-68
2021/10/31 13:59:53;;;;;;;6.20;4.15;;;;;;;;;;5051657;28;20481;-68
2021/10/31 14:02:20;;;;;;;4.90;3.85;;;;;;;;;;5050344;28;20060;-68
2021/10/31 14:04:46;;;;;;;5.95;4.35;;;;;;;;;;5049981;28;20534;-68
2021/10/31 14:07:13;;;;;;;5.47;3.97;;;;;;;;;;5049777;28;20052;-68
2021/10/31 14:09:43;;;;;;;6.88;4.10;;;;;;;;;;5049434;28;20031;-68
2021/10/31 14:12:09;;;;;;;7.05;4.18;;;;;;;;;;5051623;28;20369;-68
2021/10/31 14:14:46;;;;;;;8.43;4.53;;;;;;;;;;5050304;28;20060;-68
2021/10/31 14:17:14;;;;;;;7.35;5.53;;;;;;;;;;5049856;28;20036;-68
2021/10/31 14:19:42;;;;;;;12.00;8.20;;;;;;;;;;5049883;28;20040;-67
2021/10/31 14:22:08;;;;;;;23.67;17.38;;;;;;;;;;5049629;28;20066;-69
2021/10/31 14:24:35;;;;;;;26.52;17.40;;;;;;;;;;5033716;28;20029;-67
2021/10/31 14:27:15;;;;;;;14.65;9.70;;;;;;;;;;5052847;28;20040;-67
2021/10/31 14:29:41;;;;;;;10.63;7.35;;;;;;;;;;5052366;28;20025;-69